sensor_id;sensor_type;location;lat;lon;timestamp;P1;durP1;ratioP1;P2;durP2;ratioP2
1957;SDS011;979;51.076;13.748;2023-04-24T00:06:10;20.67;;;19.50;;
1957;SDS011;979;51.076;13.748;2023-04-24T00:09:22;21.50;;;20.20;;
1957;SDS011;979;51.076;13.748;2023-04-24T00:12:14;21.23;;;20.23;;
1957;SDS011;979;51.076;13.748;2023-04-24T00:14:54;21.40;;;20.20;;
1957;SDS011;979;51.076;13.748;2023-04-24T00:18:06;20.50;;;19.60;;
1957;SDS011;979;51.076;13.748;2023-04-24T00:20:43;20.90;;;19.90;;
1957;SDS011;979;51.076;13.748;2023-04-24T00:24:05;20.73;;;19.50;;
1957;SDS011;979;51.076;13.748;2023-04-24T00:27:15;20.70;;;19.67;;
1957;SDS011;979;51.076;13.748;2023-04-24T00:30:09;21.00;;;19.77;;
1957;SDS011;979;51.076;13.748;2023-04-24T00:33:21;20.83;;;19.60;;
1957;SDS011;979;51.076;13.748;2023-04-24T00:36:12;21.57;;;20.37;;
1957;SDS011;979;51.076;13.748;2023-04-24T00:38:55;21.80;;;20.40;;
1957;SDS011;979;51.076;13.748;2023-04-24T00:48:41;20.27;;;19.20;;
1957;SDS011;979;51.076;13.748;2023-04-24T00:51:34;22.00;;;20.70;;
1957;SDS011;979;51.076;13.748;2023-04-24T00:54:22;21.10;;;20.10;;
1957;SDS011;979;51.076;13.748;2023-04-24T00:57:10;21.90;;;20.70;;
1957;SDS011;979;51.076;13.748;2023-04-24T01:00:53;20.90;;;19.90;;
1957;SDS011;979;51.076;13.748;2023-04-24T01:04:03;19.90;;;19.00;;
1957;SDS011;979;51.076;13.748;2023-04-24T01:07:03;20.97;;;19.93;;
1957;SDS011;979;51.076;13.748;2023-04-24T01:10:29;20.57;;;19.57;;
1957;SDS011;979;51.076;13.748;2023-04-24T01:13:25;20.87;;;19.70;;
1957;SDS011;979;51.076;13.748;2023-04-24T01:16:32;21.30;;;20.33;;
1957;SDS011;979;51.076;13.748;2023-04-24T01:19:41;20.60;;;19.60;;
1957;SDS011;979;51.076;13.748;2023-04-24T01:22:50;21.43;;;20.33;;
1957;SDS011;979;51.076;13.748;2023-04-24T01:25:55;20.27;;;19.37;;
1957;SDS011;979;51.076;13.748;2023-04-24T01:28:48;19.97;;;19.07;;
1957;SDS011;979;51.076;13.748;2023-04-24T01:31:51;20.63;;;19.53;;
1957;SDS011;979;51.076;13.748;2023-04-24T01:34:39;21.00;;;20.00;;
1957;SDS011;979;51.076;13.748;2023-04-24T01:37:17;20.93;;;19.83;;
1957;SDS011;979;51.076;13.748;2023-04-24T01:40:24;21.00;;;19.80;;
1957;SDS011;979;51.076;13.748;2023-04-24T01:43:31;21.70;;;20.40;;
1957;SDS011;979;51.076;13.748;2023-04-24T01:46:23;22.60;;;21.20;;
1957;SDS011;979;51.076;13.748;2023-04-24T01:49:22;21.10;;;20.00;;
1957;SDS011;979;51.076;13.748;2023-04-24T01:52:26;21.33;;;20.23;;
1957;SDS011;979;51.076;13.748;2023-04-24T01:55:14;20.50;;;19.60;;
1957;SDS011;979;51.076;13.748;2023-04-24T01:58:10;21.23;;;19.83;;
1957;SDS011;979;51.076;13.748;2023-04-24T02:01:01;20.70;;;19.63;;
1957;SDS011;979;51.076;13.748;2023-04-24T02:03:58;20.97;;;19.90;;
1957;SDS011;979;51.076;13.748;2023-04-24T02:07:10;20.50;;;19.40;;
1957;SDS011;979;51.076;13.748;2023-04-24T02:10:28;20.70;;;19.60;;
1957;SDS011;979;51.076;13.748;2023-04-24T02:13:22;20.70;;;19.60;;
1957;SDS011;979;51.076;13.748;2023-04-24T02:17:24;21.23;;;19.93;;
1957;SDS011;979;51.076;13.748;2023-04-24T02:20:09;20.73;;;19.73;;
1957;SDS011;979;51.076;13.748;2023-04-24T02:23:10;21.53;;;20.33;;
1957;SDS011;979;51.076;13.748;2023-04-24T02:25:51;20.17;;;19.07;;
1957;SDS011;979;51.076;13.748;2023-04-24T02:28:32;22.10;;;20.90;;
1957;SDS011;979;51.076;13.748;2023-04-24T02:31:35;20.80;;;19.70;;
1957;SDS011;979;51.076;13.748;2023-04-24T02:34:27;20.67;;;19.47;;
1957;SDS011;979;51.076;13.748;2023-04-24T02:37:08;20.60;;;19.50;;
1957;SDS011;979;51.076;13.748;2023-04-24T02:39:45;20.80;;;19.83;;
1957;SDS011;979;51.076;13.748;2023-04-24T02:43:14;20.30;;;19.27;;
1957;SDS011;979;51.076;13.748;2023-04-24T02:46:10;18.93;;;18.13;;
1957;SDS011;979;51.076;13.748;2023-04-24T02:49:11;21.53;;;20.00;;
1957;SDS011;979;51.076;13.748;2023-04-24T02:52:28;21.00;;;19.90;;
1957;SDS011;979;51.076;13.748;2023-04-24T02:55:12;21.83;;;20.53;;
1957;SDS011;979;51.076;13.748;2023-04-24T02:57:50;20.73;;;19.53;;
1957;SDS011;979;51.076;13.748;2023-04-24T03:00:52;20.97;;;19.97;;
1957;SDS011;979;51.076;13.748;2023-04-24T03:07:04;19.50;;;18.60;;
1957;SDS011;979;51.076;13.748;2023-04-24T03:09:57;21.20;;;20.20;;
1957;SDS011;979;51.076;13.748;2023-04-24T03:12:52;20.80;;;19.80;;
1957;SDS011;979;51.076;13.748;2023-04-24T03:15:58;19.40;;;18.50;;
1957;SDS011;979;51.076;13.748;2023-04-24T03:19:22;20.47;;;19.37;;
1957;SDS011;979;51.076;13.748;2023-04-24T03:22:22;20.20;;;19.20;;
1957;SDS011;979;51.076;13.748;2023-04-24T03:25:15;19.90;;;18.70;;
1957;SDS011;979;51.076;13.748;2023-04-24T03:28:31;19.70;;;18.80;;
1957;SDS011;979;51.076;13.748;2023-04-24T03:31:17;19.40;;;18.50;;
1957;SDS011;979;51.076;13.748;2023-04-24T03:34:18;20.37;;;19.27;;
1957;SDS011;979;51.076;13.748;2023-04-24T03:37:02;20.80;;;19.70;;
1957;SDS011;979;51.076;13.748;2023-04-24T03:39:42;20.83;;;19.77;;
1957;SDS011;979;51.076;13.748;2023-04-24T03:42:28;21.80;;;20.70;;
1957;SDS011;979;51.076;13.748;2023-04-24T03:45:34;21.57;;;20.37;;
1957;SDS011;979;51.076;13.748;2023-04-24T03:48:27;21.00;;;19.80;;
1957;SDS011;979;51.076;13.748;2023-04-24T03:51:46;21.60;;;20.50;;
1957;SDS011;979;51.076;13.748;2023-04-24T03:54:43;20.63;;;19.53;;
1957;SDS011;979;51.076;13.748;2023-04-24T03:57:56;21.07;;;19.97;;
1957;SDS011;979;51.076;13.748;2023-04-24T04:01:22;19.00;;;18.10;;
1957;SDS011;979;51.076;13.748;2023-04-24T04:04:22;19.50;;;18.47;;
1957;SDS011;979;51.076;13.748;2023-04-24T04:07:10;20.33;;;19.23;;
1957;SDS011;979;51.076;13.748;2023-04-24T04:09:54;18.33;;;17.47;;
1957;SDS011;979;51.076;13.748;2023-04-24T04:12:57;18.77;;;17.83;;
1957;SDS011;979;51.076;13.748;2023-04-24T04:16:15;18.97;;;18.07;;
1957;SDS011;979;51.076;13.748;2023-04-24T04:19:06;17.70;;;16.97;;
1957;SDS011;979;51.076;13.748;2023-04-24T04:22:21;17.10;;;16.40;;
1957;SDS011;979;51.076;13.748;2023-04-24T04:25:37;18.70;;;17.70;;
1957;SDS011;979;51.076;13.748;2023-04-24T04:28:42;17.40;;;16.70;;
1957;SDS011;979;51.076;13.748;2023-04-24T04:31:32;15.50;;;14.93;;
1957;SDS011;979;51.076;13.748;2023-04-24T04:34:13;17.47;;;16.67;;
1957;SDS011;979;51.076;13.748;2023-04-24T04:36:48;14.87;;;14.30;;
1957;SDS011;979;51.076;13.748;2023-04-24T04:43:20;16.40;;;15.70;;
1957;SDS011;979;51.076;13.748;2023-04-24T04:46:32;16.97;;;16.37;;
1957;SDS011;979;51.076;13.748;2023-04-24T04:49:38;16.90;;;16.30;;
1957;SDS011;979;51.076;13.748;2023-04-24T04:52:21;15.30;;;14.80;;
1957;SDS011;979;51.076;13.748;2023-04-24T04:55:32;15.57;;;14.93;;
1957;SDS011;979;51.076;13.748;2023-04-24T05:02:35;15.63;;;15.20;;
1957;SDS011;979;51.076;13.748;2023-04-24T05:05:07;15.90;;;15.30;;
1957;SDS011;979;51.076;13.748;2023-04-24T05:07:36;16.00;;;15.50;;
1957;SDS011;979;51.076;13.748;2023-04-24T05:10:28;14.43;;;14.03;;
1957;SDS011;979;51.076;13.748;2023-04-24T05:13:13;16.73;;;16.20;;
1957;SDS011;979;51.076;13.748;2023-04-24T05:16:13;15.53;;;14.93;;
1957;SDS011;979;51.076;13.748;2023-04-24T05:19:01;15.60;;;15.20;;
1957;SDS011;979;51.076;13.748;2023-04-24T05:21:42;17.00;;;16.30;;
1957;SDS011;979;51.076;13.748;2023-04-24T05:24:24;16.90;;;16.10;;
1957;SDS011;979;51.076;13.748;2023-04-24T05:27:37;17.23;;;16.47;;
1957;SDS011;979;51.076;13.748;2023-04-24T05:30:19;17.47;;;16.20;;
1957;SDS011;979;51.076;13.748;2023-04-24T05:33:04;16.83;;;16.23;;
1957;SDS011;979;51.076;13.748;2023-04-24T05:35:41;17.47;;;16.37;;
1957;SDS011;979;51.076;13.748;2023-04-24T05:41:36;16.60;;;16.10;;
1957;SDS011;979;51.076;13.748;2023-04-24T05:44:14;16.63;;;15.83;;
1957;SDS011;979;51.076;13.748;2023-04-24T05:46:59;17.13;;;16.00;;
1957;SDS011;979;51.076;13.748;2023-04-24T05:49:31;16.90;;;16.20;;
1957;SDS011;979;51.076;13.748;2023-04-24T05:52:15;16.90;;;16.20;;
1957;SDS011;979;51.076;13.748;2023-04-24T05:54:53;16.53;;;15.93;;
1957;SDS011;979;51.076;13.748;2023-04-24T05:57:32;16.60;;;15.77;;
1957;SDS011;979;51.076;13.748;2023-04-24T06:00:26;17.43;;;16.77;;
1957;SDS011;979;51.076;13.748;2023-04-24T06:03:11;15.73;;;15.10;;
1957;SDS011;979;51.076;13.748;2023-04-24T06:05:50;15.90;;;15.30;;
1957;SDS011;979;51.076;13.748;2023-04-24T06:08:24;16.87;;;15.83;;
1957;SDS011;979;51.076;13.748;2023-04-24T06:11:05;16.30;;;15.70;;
1957;SDS011;979;51.076;13.748;2023-04-24T06:13:38;17.47;;;16.60;;
1957;SDS011;979;51.076;13.748;2023-04-24T06:16:34;15.90;;;15.30;;
1957;SDS011;979;51.076;13.748;2023-04-24T06:19:10;17.63;;;16.80;;
1957;SDS011;979;51.076;13.748;2023-04-24T06:21:39;17.33;;;16.63;;
1957;SDS011;979;51.076;13.748;2023-04-24T06:24:15;17.67;;;16.87;;
1957;SDS011;979;51.076;13.748;2023-04-24T06:26:59;15.40;;;14.93;;
1957;SDS011;979;51.076;13.748;2023-04-24T06:29:41;16.70;;;15.80;;
1957;SDS011;979;51.076;13.748;2023-04-24T06:32:39;18.13;;;17.53;;
1957;SDS011;979;51.076;13.748;2023-04-24T06:35:22;17.47;;;16.80;;
1957;SDS011;979;51.076;13.748;2023-04-24T06:38:05;17.63;;;17.03;;
1957;SDS011;979;51.076;13.748;2023-04-24T06:40:41;16.77;;;16.17;;
1957;SDS011;979;51.076;13.748;2023-04-24T06:43:15;17.00;;;16.30;;
1957;SDS011;979;51.076;13.748;2023-04-24T06:45:59;16.60;;;16.10;;
1957;SDS011;979;51.076;13.748;2023-04-24T06:51:17;16.90;;;16.30;;
1957;SDS011;979;51.076;13.748;2023-04-24T06:53:54;16.80;;;16.20;;
1957;SDS011;979;51.076;13.748;2023-04-24T06:56:42;16.90;;;16.40;;
1957;SDS011;979;51.076;13.748;2023-04-24T06:59:19;16.90;;;16.30;;
1957;SDS011;979;51.076;13.748;2023-04-24T07:02:09;16.50;;;15.90;;
1957;SDS011;979;51.076;13.748;2023-04-24T07:07:33;16.43;;;15.73;;
1957;SDS011;979;51.076;13.748;2023-04-24T07:10:07;17.20;;;16.60;;
1957;SDS011;979;51.076;13.748;2023-04-24T07:12:43;16.03;;;15.53;;
1957;SDS011;979;51.076;13.748;2023-04-24T07:15:17;16.63;;;16.13;;
1957;SDS011;979;51.076;13.748;2023-04-24T07:17:53;16.73;;;16.20;;
1957;SDS011;979;51.076;13.748;2023-04-24T07:20:36;16.83;;;16.23;;
1957;SDS011;979;51.076;13.748;2023-04-24T07:23:05;17.67;;;16.77;;
1957;SDS011;979;51.076;13.748;2023-04-24T07:25:41;16.70;;;16.20;;
1957;SDS011;979;51.076;13.748;2023-04-24T07:28:12;16.17;;;15.57;;
1957;SDS011;979;51.076;13.748;2023-04-24T07:31:12;17.17;;;16.60;;
1957;SDS011;979;51.076;13.748;2023-04-24T07:33:44;17.20;;;16.63;;
1957;SDS011;979;51.076;13.748;2023-04-24T07:36:15;17.80;;;17.17;;
1957;SDS011;979;51.076;13.748;2023-04-24T07:38:47;17.43;;;16.73;;
1957;SDS011;979;51.076;13.748;2023-04-24T07:41:21;17.60;;;17.00;;
1957;SDS011;979;51.076;13.748;2023-04-24T07:43:57;17.53;;;16.93;;
1957;SDS011;979;51.076;13.748;2023-04-24T07:46:41;17.03;;;16.43;;
1957;SDS011;979;51.076;13.748;2023-04-24T07:49:15;16.80;;;16.20;;
1957;SDS011;979;51.076;13.748;2023-04-24T07:51:50;17.20;;;16.60;;
1957;SDS011;979;51.076;13.748;2023-04-24T07:54:22;17.03;;;16.43;;
1957;SDS011;979;51.076;13.748;2023-04-24T07:56:54;16.60;;;16.10;;
1957;SDS011;979;51.076;13.748;2023-04-24T07:59:28;16.33;;;15.70;;
1957;SDS011;979;51.076;13.748;2023-04-24T08:02:10;16.47;;;15.87;;
1957;SDS011;979;51.076;13.748;2023-04-24T08:04:43;17.57;;;16.97;;
1957;SDS011;979;51.076;13.748;2023-04-24T08:07:12;17.40;;;16.90;;
1957;SDS011;979;51.076;13.748;2023-04-24T08:09:40;17.40;;;16.80;;
1957;SDS011;979;51.076;13.748;2023-04-24T08:12:21;18.00;;;17.20;;
1957;SDS011;979;51.076;13.748;2023-04-24T08:14:58;17.50;;;17.00;;
1957;SDS011;979;51.076;13.748;2023-04-24T08:17:34;17.53;;;17.00;;
1957;SDS011;979;51.076;13.748;2023-04-24T08:20:13;17.20;;;16.60;;
1957;SDS011;979;51.076;13.748;2023-04-24T08:22:49;17.00;;;16.30;;
1957;SDS011;979;51.076;13.748;2023-04-24T08:25:21;18.10;;;16.60;;
1957;SDS011;979;51.076;13.748;2023-04-24T08:27:55;17.17;;;16.50;;
1957;SDS011;979;51.076;13.748;2023-04-24T08:30:30;16.77;;;16.17;;
1957;SDS011;979;51.076;13.748;2023-04-24T08:33:02;16.73;;;16.10;;
1957;SDS011;979;51.076;13.748;2023-04-24T08:35:34;15.87;;;15.37;;
1957;SDS011;979;51.076;13.748;2023-04-24T08:38:11;17.43;;;16.33;;
1957;SDS011;979;51.076;13.748;2023-04-24T08:40:48;16.00;;;15.50;;
1957;SDS011;979;51.076;13.748;2023-04-24T08:43:22;16.87;;;16.27;;
1957;SDS011;979;51.076;13.748;2023-04-24T08:46:00;16.37;;;15.73;;
1957;SDS011;979;51.076;13.748;2023-04-24T08:48:37;16.83;;;15.90;;
1957;SDS011;979;51.076;13.748;2023-04-24T08:51:13;17.10;;;16.60;;
1957;SDS011;979;51.076;13.748;2023-04-24T08:53:52;16.40;;;15.80;;
1957;SDS011;979;51.076;13.748;2023-04-24T08:56:26;17.70;;;16.93;;
1957;SDS011;979;51.076;13.748;2023-04-24T08:59:16;16.63;;;15.93;;
1957;SDS011;979;51.076;13.748;2023-04-24T09:02:06;16.53;;;15.93;;
1957;SDS011;979;51.076;13.748;2023-04-24T09:05:02;17.27;;;16.67;;
1957;SDS011;979;51.076;13.748;2023-04-24T09:07:49;16.13;;;15.63;;
1957;SDS011;979;51.076;13.748;2023-04-24T09:10:24;14.97;;;14.57;;
1957;SDS011;979;51.076;13.748;2023-04-24T09:13:12;16.70;;;16.00;;
1957;SDS011;979;51.076;13.748;2023-04-24T09:15:49;16.67;;;16.10;;
1957;SDS011;979;51.076;13.748;2023-04-24T09:18:38;15.83;;;15.33;;
1957;SDS011;979;51.076;13.748;2023-04-24T09:21:20;16.83;;;16.23;;
1957;SDS011;979;51.076;13.748;2023-04-24T09:24:04;17.33;;;16.83;;
1957;SDS011;979;51.076;13.748;2023-04-24T09:26:47;17.57;;;16.87;;
1957;SDS011;979;51.076;13.748;2023-04-24T09:29:37;17.50;;;16.80;;
1957;SDS011;979;51.076;13.748;2023-04-24T09:32:20;16.13;;;15.63;;
1957;SDS011;979;51.076;13.748;2023-04-24T09:35:06;17.00;;;16.50;;
1957;SDS011;979;51.076;13.748;2023-04-24T09:37:46;16.87;;;16.37;;
1957;SDS011;979;51.076;13.748;2023-04-24T09:40:45;18.43;;;17.77;;
1957;SDS011;979;51.076;13.748;2023-04-24T09:43:20;16.60;;;16.10;;
1957;SDS011;979;51.076;13.748;2023-04-24T09:45:50;18.10;;;17.20;;
1957;SDS011;979;51.076;13.748;2023-04-24T09:48:31;17.50;;;16.90;;
1957;SDS011;979;51.076;13.748;2023-04-24T09:51:03;17.63;;;16.93;;
1957;SDS011;979;51.076;13.748;2023-04-24T09:53:44;17.53;;;17.00;;
1957;SDS011;979;51.076;13.748;2023-04-24T09:56:24;16.43;;;15.80;;
1957;SDS011;979;51.076;13.748;2023-04-24T09:59:05;16.50;;;15.83;;
1957;SDS011;979;51.076;13.748;2023-04-24T10:01:36;16.97;;;16.47;;
1957;SDS011;979;51.076;13.748;2023-04-24T10:04:15;18.10;;;17.30;;
1957;SDS011;979;51.076;13.748;2023-04-24T10:06:49;17.70;;;17.10;;
1957;SDS011;979;51.076;13.748;2023-04-24T10:09:19;17.70;;;17.10;;
1957;SDS011;979;51.076;13.748;2023-04-24T10:11:53;17.40;;;16.50;;
1957;SDS011;979;51.076;13.748;2023-04-24T10:14:22;17.30;;;16.70;;
1957;SDS011;979;51.076;13.748;2023-04-24T10:17:04;17.20;;;16.70;;
1957;SDS011;979;51.076;13.748;2023-04-24T10:19:46;17.20;;;16.50;;
1957;SDS011;979;51.076;13.748;2023-04-24T10:22:23;17.30;;;16.70;;
1957;SDS011;979;51.076;13.748;2023-04-24T10:24:59;17.80;;;17.20;;
1957;SDS011;979;51.076;13.748;2023-04-24T10:27:31;17.50;;;16.90;;
1957;SDS011;979;51.076;13.748;2023-04-24T10:30:02;16.93;;;16.30;;
1957;SDS011;979;51.076;13.748;2023-04-24T10:32:37;17.20;;;16.50;;
1957;SDS011;979;51.076;13.748;2023-04-24T10:35:08;16.90;;;16.37;;
1957;SDS011;979;51.076;13.748;2023-04-24T10:37:44;17.27;;;16.67;;
1957;SDS011;979;51.076;13.748;2023-04-24T10:40:16;17.13;;;16.53;;
1957;SDS011;979;51.076;13.748;2023-04-24T10:42:47;17.50;;;16.90;;
1957;SDS011;979;51.076;13.748;2023-04-24T10:45:16;17.40;;;16.80;;
1957;SDS011;979;51.076;13.748;2023-04-24T10:47:50;17.90;;;17.20;;
1957;SDS011;979;51.076;13.748;2023-04-24T10:50:22;17.10;;;16.60;;
1957;SDS011;979;51.076;13.748;2023-04-24T10:53:05;17.90;;;17.00;;
1957;SDS011;979;51.076;13.748;2023-04-24T10:55:41;17.10;;;16.43;;
1957;SDS011;979;51.076;13.748;2023-04-24T10:58:24;17.97;;;16.90;;
1957;SDS011;979;51.076;13.748;2023-04-24T11:01:41;17.03;;;16.53;;
1957;SDS011;979;51.076;13.748;2023-04-24T11:04:31;17.90;;;17.20;;
1957;SDS011;979;51.076;13.748;2023-04-24T11:07:12;17.03;;;16.43;;
1957;SDS011;979;51.076;13.748;2023-04-24T11:09:52;17.30;;;16.70;;
1957;SDS011;979;51.076;13.748;2023-04-24T11:12:34;17.10;;;16.60;;
1957;SDS011;979;51.076;13.748;2023-04-24T11:15:10;17.77;;;17.03;;
1957;SDS011;979;51.076;13.748;2023-04-24T11:17:58;16.70;;;16.13;;
1957;SDS011;979;51.076;13.748;2023-04-24T11:20:44;17.60;;;17.00;;
1957;SDS011;979;51.076;13.748;2023-04-24T11:23:38;18.10;;;17.50;;
1957;SDS011;979;51.076;13.748;2023-04-24T11:26:24;17.50;;;17.00;;
1957;SDS011;979;51.076;13.748;2023-04-24T11:29:20;17.40;;;16.70;;
1957;SDS011;979;51.076;13.748;2023-04-24T11:32:15;17.77;;;17.17;;
1957;SDS011;979;51.076;13.748;2023-04-24T11:34:46;17.67;;;17.17;;
1957;SDS011;979;51.076;13.748;2023-04-24T11:40:48;17.67;;;16.97;;
1957;SDS011;979;51.076;13.748;2023-04-24T11:43:31;18.07;;;17.47;;
1957;SDS011;979;51.076;13.748;2023-04-24T11:46:34;16.90;;;16.40;;
1957;SDS011;979;51.076;13.748;2023-04-24T11:49:12;18.20;;;17.50;;
1957;SDS011;979;51.076;13.748;2023-04-24T11:51:54;18.37;;;17.77;;
1957;SDS011;979;51.076;13.748;2023-04-24T11:54:26;17.13;;;16.63;;
1957;SDS011;979;51.076;13.748;2023-04-24T11:57:03;17.53;;;16.93;;
1957;SDS011;979;51.076;13.748;2023-04-24T11:59:51;17.30;;;16.80;;
1957;SDS011;979;51.076;13.748;2023-04-24T12:03:03;17.80;;;17.20;;
1957;SDS011;979;51.076;13.748;2023-04-24T12:05:51;17.37;;;16.87;;
1957;SDS011;979;51.076;13.748;2023-04-24T12:08:27;18.17;;;17.63;;
1957;SDS011;979;51.076;13.748;2023-04-24T12:11:09;19.23;;;18.07;;
1957;SDS011;979;51.076;13.748;2023-04-24T12:13:51;18.13;;;17.53;;
1957;SDS011;979;51.076;13.748;2023-04-24T12:16:46;18.83;;;18.13;;
1957;SDS011;979;51.076;13.748;2023-04-24T12:19:21;18.50;;;17.90;;
1957;SDS011;979;51.076;13.748;2023-04-24T12:22:10;18.57;;;17.97;;
1957;SDS011;979;51.076;13.748;2023-04-24T12:24:59;17.90;;;17.30;;
1957;SDS011;979;51.076;13.748;2023-04-24T12:27:36;18.00;;;17.20;;
1957;SDS011;979;51.076;13.748;2023-04-24T12:30:35;17.30;;;16.70;;
1957;SDS011;979;51.076;13.748;2023-04-24T12:33:18;17.87;;;17.27;;
1957;SDS011;979;51.076;13.748;2023-04-24T12:35:48;17.20;;;16.67;;
1957;SDS011;979;51.076;13.748;2023-04-24T12:38:58;17.47;;;16.87;;
1957;SDS011;979;51.076;13.748;2023-04-24T12:41:55;18.20;;;17.67;;
1957;SDS011;979;51.076;13.748;2023-04-24T12:44:34;17.77;;;17.17;;
1957;SDS011;979;51.076;13.748;2023-04-24T12:47:09;18.00;;;17.30;;
1957;SDS011;979;51.076;13.748;2023-04-24T12:50:00;16.87;;;16.07;;
1957;SDS011;979;51.076;13.748;2023-04-24T12:52:45;18.13;;;17.40;;
1957;SDS011;979;51.076;13.748;2023-04-24T12:55:36;18.07;;;17.40;;
1957;SDS011;979;51.076;13.748;2023-04-24T12:58:24;18.13;;;17.53;;
1957;SDS011;979;51.076;13.748;2023-04-24T13:01:02;17.50;;;16.70;;
1957;SDS011;979;51.076;13.748;2023-04-24T13:03:57;17.77;;;17.27;;
1957;SDS011;979;51.076;13.748;2023-04-24T13:06:42;18.90;;;18.30;;
1957;SDS011;979;51.076;13.748;2023-04-24T13:09:10;19.07;;;18.37;;
1957;SDS011;979;51.076;13.748;2023-04-24T13:11:40;18.87;;;18.07;;
1957;SDS011;979;51.076;13.748;2023-04-24T13:14:23;18.00;;;17.50;;
1957;SDS011;979;51.076;13.748;2023-04-24T13:17:02;19.03;;;18.23;;
1957;SDS011;979;51.076;13.748;2023-04-24T13:19:39;18.17;;;17.17;;
1957;SDS011;979;51.076;13.748;2023-04-24T13:22:32;18.00;;;17.30;;
1957;SDS011;979;51.076;13.748;2023-04-24T13:28:54;17.00;;;16.50;;
1957;SDS011;979;51.076;13.748;2023-04-24T13:31:41;18.47;;;17.70;;
1957;SDS011;979;51.076;13.748;2023-04-24T13:37:24;19.30;;;18.40;;
1957;SDS011;979;51.076;13.748;2023-04-24T13:40:19;19.40;;;18.50;;
1957;SDS011;979;51.076;13.748;2023-04-24T13:43:03;18.60;;;17.60;;
1957;SDS011;979;51.076;13.748;2023-04-24T13:45:39;17.93;;;17.23;;
1957;SDS011;979;51.076;13.748;2023-04-24T13:48:11;18.57;;;17.87;;
1957;SDS011;979;51.076;13.748;2023-04-24T13:50:58;17.60;;;16.97;;
1957;SDS011;979;51.076;13.748;2023-04-24T13:53:28;18.13;;;17.53;;
1957;SDS011;979;51.076;13.748;2023-04-24T13:56:27;17.40;;;16.70;;
1957;SDS011;979;51.076;13.748;2023-04-24T13:59:17;19.00;;;18.40;;
1957;SDS011;979;51.076;13.748;2023-04-24T14:01:58;17.03;;;16.53;;
1957;SDS011;979;51.076;13.748;2023-04-24T14:05:17;18.30;;;17.70;;
1957;SDS011;979;51.076;13.748;2023-04-24T14:07:56;17.00;;;16.40;;
1957;SDS011;979;51.076;13.748;2023-04-24T14:12:10;16.83;;;16.33;;
1957;SDS011;979;51.076;13.748;2023-04-24T14:22:43;18.27;;;17.67;;
1957;SDS011;979;51.076;13.748;2023-04-24T14:42:45;18.50;;;17.60;;
1957;SDS011;979;51.076;13.748;2023-04-24T14:45:27;17.10;;;16.50;;
1957;SDS011;979;51.076;13.748;2023-04-24T14:47:59;17.33;;;16.73;;
1957;SDS011;979;51.076;13.748;2023-04-24T14:50:51;17.03;;;16.53;;
1957;SDS011;979;51.076;13.748;2023-04-24T14:53:47;16.73;;;16.23;;
1957;SDS011;979;51.076;13.748;2023-04-24T14:58:56;17.93;;;17.23;;
1957;SDS011;979;51.076;13.748;2023-04-24T15:00:09;17.60;;;16.90;;
1957;SDS011;979;51.076;13.748;2023-04-24T15:03:19;16.90;;;16.40;;
1957;SDS011;979;51.076;13.748;2023-04-24T15:17:03;17.10;;;16.40;;
1957;SDS011;979;51.076;13.748;2023-04-24T15:21:19;16.30;;;15.80;;
1957;SDS011;979;51.076;13.748;2023-04-24T15:24:04;16.90;;;16.30;;
1957;SDS011;979;51.076;13.748;2023-04-24T15:26:41;16.47;;;15.97;;
1957;SDS011;979;51.076;13.748;2023-04-24T15:29:34;15.47;;;15.07;;
1957;SDS011;979;51.076;13.748;2023-04-24T15:32:50;16.40;;;15.80;;
1957;SDS011;979;51.076;13.748;2023-04-24T15:35:31;16.20;;;15.67;;
1957;SDS011;979;51.076;13.748;2023-04-24T15:38:18;17.13;;;16.53;;
1957;SDS011;979;51.076;13.748;2023-04-24T15:41:12;15.93;;;15.43;;
1957;SDS011;979;51.076;13.748;2023-04-24T15:43:41;16.10;;;15.60;;
1957;SDS011;979;51.076;13.748;2023-04-24T15:46:22;16.30;;;15.70;;
1957;SDS011;979;51.076;13.748;2023-04-24T15:49:05;15.90;;;15.40;;
1957;SDS011;979;51.076;13.748;2023-04-24T15:52:17;15.33;;;14.93;;
1957;SDS011;979;51.076;13.748;2023-04-24T15:55:05;16.30;;;15.70;;
1957;SDS011;979;51.076;13.748;2023-04-24T15:58:15;14.87;;;14.37;;
1957;SDS011;979;51.076;13.748;2023-04-24T16:02:12;16.10;;;15.27;;
1957;SDS011;979;51.076;13.748;2023-04-24T16:04:59;15.40;;;15.00;;
1957;SDS011;979;51.076;13.748;2023-04-24T16:07:57;15.57;;;14.77;;
1957;SDS011;979;51.076;13.748;2023-04-24T16:11:05;17.17;;;16.50;;
1957;SDS011;979;51.076;13.748;2023-04-24T16:13:58;15.43;;;14.93;;
1957;SDS011;979;51.076;13.748;2023-04-24T16:17:03;16.60;;;15.80;;
1957;SDS011;979;51.076;13.748;2023-04-24T16:30:22;15.80;;;15.30;;
1957;SDS011;979;51.076;13.748;2023-04-24T16:36:13;14.97;;;14.57;;
1957;SDS011;979;51.076;13.748;2023-04-24T16:38:54;15.70;;;15.20;;
1957;SDS011;979;51.076;13.748;2023-04-24T16:46:06;16.10;;;15.50;;
1957;SDS011;979;51.076;13.748;2023-04-24T16:48:52;17.23;;;16.53;;
1957;SDS011;979;51.076;13.748;2023-04-24T16:55:20;18.80;;;17.77;;
1957;SDS011;979;51.076;13.748;2023-04-24T16:58:07;16.40;;;15.70;;
1957;SDS011;979;51.076;13.748;2023-04-24T17:00:45;18.20;;;17.40;;
1957;SDS011;979;51.076;13.748;2023-04-24T17:07:21;16.40;;;15.90;;
1957;SDS011;979;51.076;13.748;2023-04-24T17:13:21;16.07;;;15.57;;
1957;SDS011;979;51.076;13.748;2023-04-24T17:20:11;14.63;;;14.23;;
1957;SDS011;979;51.076;13.748;2023-04-24T17:23:40;14.63;;;14.13;;
1957;SDS011;979;51.076;13.748;2023-04-24T17:29:54;13.43;;;13.03;;
1957;SDS011;979;51.076;13.748;2023-04-24T17:40:43;13.70;;;13.30;;
1957;SDS011;979;51.076;13.748;2023-04-24T17:44:03;15.03;;;14.60;;
1957;SDS011;979;51.076;13.748;2023-04-24T19:07:50;15.57;;;14.87;;
1957;SDS011;979;51.076;13.748;2023-04-24T19:11:07;15.50;;;15.00;;
1957;SDS011;979;51.076;13.748;2023-04-24T19:14:24;14.40;;;14.00;;
1957;SDS011;979;51.076;13.748;2023-04-24T19:25:08;15.10;;;14.70;;
1957;SDS011;979;51.076;13.748;2023-04-24T19:27:59;15.80;;;15.30;;
1957;SDS011;979;51.076;13.748;2023-04-24T19:30:34;15.23;;;14.83;;
1957;SDS011;979;51.076;13.748;2023-04-24T19:33:12;14.50;;;14.03;;
1957;SDS011;979;51.076;13.748;2023-04-24T19:35:59;16.23;;;15.53;;
1957;SDS011;979;51.076;13.748;2023-04-24T19:38:53;15.57;;;14.97;;
1957;SDS011;979;51.076;13.748;2023-04-24T19:42:10;15.60;;;15.10;;
1957;SDS011;979;51.076;13.748;2023-04-24T19:45:27;15.90;;;15.40;;
1957;SDS011;979;51.076;13.748;2023-04-24T19:48:38;15.77;;;15.33;;
1957;SDS011;979;51.076;13.748;2023-04-24T19:58:46;15.30;;;14.87;;
1957;SDS011;979;51.076;13.748;2023-04-24T20:01:18;15.30;;;14.90;;
1957;SDS011;979;51.076;13.748;2023-04-24T20:04:05;15.03;;;14.50;;
1957;SDS011;979;51.076;13.748;2023-04-24T20:06:49;15.63;;;15.13;;
1957;SDS011;979;51.076;13.748;2023-04-24T20:13:41;15.70;;;15.30;;
1957;SDS011;979;51.076;13.748;2023-04-24T20:29:25;16.50;;;16.00;;
1957;SDS011;979;51.076;13.748;2023-04-24T20:32:01;16.63;;;16.00;;
1957;SDS011;979;51.076;13.748;2023-04-24T20:34:30;15.50;;;15.10;;
1957;SDS011;979;51.076;13.748;2023-04-24T20:36:59;16.50;;;16.00;;
1957;SDS011;979;51.076;13.748;2023-04-24T20:39:29;16.57;;;15.97;;
1957;SDS011;979;51.076;13.748;2023-04-24T20:41:57;16.40;;;15.90;;
1957;SDS011;979;51.076;13.748;2023-04-24T20:47:33;16.70;;;16.20;;
1957;SDS011;979;51.076;13.748;2023-04-24T20:50:03;16.70;;;16.20;;
1957;SDS011;979;51.076;13.748;2023-04-24T20:52:36;16.90;;;16.30;;